sensor_id;sensor_type;location;lat;lon;timestamp;P1;durP1;ratioP1;P2;durP2;ratioP2
64075;SDS011;50327;51.328;12.324;2022-10-16T00:00:12;1.60;;;0.70;;
64075;SDS011;50327;51.328;12.324;2022-10-16T00:02:38;2.50;;;1.20;;
64075;SDS011;50327;51.328;12.324;2022-10-16T00:05:03;2.87;;;1.23;;
64075;SDS011;50327;51.328;12.324;2022-10-16T00:07:28;3.75;;;0.82;;
64075;SDS011;50327;51.328;12.324;2022-10-16T00:09:53;3.45;;;1.10;;
64075;SDS011;50327;51.328;12.324;2022-10-16T00:12:19;6.23;;;0.93;;
64075;SDS011;50327;51.328;12.324;2022-10-16T00:14:44;1.75;;;1.00;;
64075;SDS011;50327;51.328;12.324;2022-10-16T00:17:09;3.07;;;1.10;;
64075;SDS011;50327;51.328;12.324;2022-10-16T00:19:34;2.17;;;1.00;;
64075;SDS011;50327;51.328;12.324;2022-10-16T00:21:59;2.23;;;0.90;;
64075;SDS011;50327;51.328;12.324;2022-10-16T00:24:24;1.47;;;0.90;;
64075;SDS011;50327;51.328;12.324;2022-10-16T00:26:50;2.00;;;0.80;;
64075;SDS011;50327;51.328;12.324;2022-10-16T00:29:15;2.50;;;0.98;;
64075;SDS011;50327;51.328;12.324;2022-10-16T00:31:41;1.55;;;0.80;;
64075;SDS011;50327;51.328;12.324;2022-10-16T00:34:06;6.30;;;0.90;;
64075;SDS011;50327;51.328;12.324;2022-10-16T00:36:31;18.93;;;1.07;;
64075;SDS011;50327;51.328;12.324;2022-10-16T00:38:57;1.77;;;0.80;;
64075;SDS011;50327;51.328;12.324;2022-10-16T00:41:24;2.03;;;0.75;;
64075;SDS011;50327;51.328;12.324;2022-10-16T00:48:40;3.05;;;0.88;;
64075;SDS011;50327;51.328;12.324;2022-10-16T00:51:06;2.17;;;0.90;;
64075;SDS011;50327;51.328;12.324;2022-10-16T00:53:32;2.30;;;0.80;;
64075;SDS011;50327;51.328;12.324;2022-10-16T00:55:57;3.83;;;1.10;;
64075;SDS011;50327;51.328;12.324;2022-10-16T00:58:23;1.10;;;0.80;;
64075;SDS011;50327;51.328;12.324;2022-10-16T01:00:48;1.70;;;0.93;;
64075;SDS011;50327;51.328;12.324;2022-10-16T01:03:27;1.38;;;0.88;;
64075;SDS011;50327;51.328;12.324;2022-10-16T01:06:36;3.35;;;0.90;;
64075;SDS011;50327;51.328;12.324;2022-10-16T01:11:31;1.35;;;0.70;;
64075;SDS011;50327;51.328;12.324;2022-10-16T01:13:58;2.38;;;1.10;;
64075;SDS011;50327;51.328;12.324;2022-10-16T01:16:29;2.53;;;1.20;;
64075;SDS011;50327;51.328;12.324;2022-10-16T01:19:09;2.22;;;1.17;;
64075;SDS011;50327;51.328;12.324;2022-10-16T01:21:38;3.78;;;1.00;;
64075;SDS011;50327;51.328;12.324;2022-10-16T01:31:49;3.15;;;0.95;;
64075;SDS011;50327;51.328;12.324;2022-10-16T01:34:16;1.70;;;0.98;;
64075;SDS011;50327;51.328;12.324;2022-10-16T01:36:56;3.20;;;1.30;;
64075;SDS011;50327;51.328;12.324;2022-10-16T01:39:26;3.40;;;1.38;;
64075;SDS011;50327;51.328;12.324;2022-10-16T01:41:55;4.88;;;1.58;;
64075;SDS011;50327;51.328;12.324;2022-10-16T01:44:25;5.32;;;1.02;;
64075;SDS011;50327;51.328;12.324;2022-10-16T01:46:51;6.45;;;1.35;;
64075;SDS011;50327;51.328;12.324;2022-10-16T01:49:17;2.15;;;1.30;;
64075;SDS011;50327;51.328;12.324;2022-10-16T01:51:43;5.80;;;1.98;;
64075;SDS011;50327;51.328;12.324;2022-10-16T01:54:10;3.38;;;1.45;;
64075;SDS011;50327;51.328;12.324;2022-10-16T01:56:36;3.25;;;1.30;;
64075;SDS011;50327;51.328;12.324;2022-10-16T01:59:06;2.20;;;1.30;;
64075;SDS011;50327;51.328;12.324;2022-10-16T02:01:33;3.17;;;1.10;;
64075;SDS011;50327;51.328;12.324;2022-10-16T02:04:01;5.32;;;1.20;;
64075;SDS011;50327;51.328;12.324;2022-10-16T02:06:29;2.85;;;1.60;;
64075;SDS011;50327;51.328;12.324;2022-10-16T02:08:54;2.75;;;1.40;;
64075;SDS011;50327;51.328;12.324;2022-10-16T02:11:19;4.30;;;1.27;;
64075;SDS011;50327;51.328;12.324;2022-10-16T02:13:46;4.00;;;1.60;;
64075;SDS011;50327;51.328;12.324;2022-10-16T02:16:13;5.05;;;1.50;;
64075;SDS011;50327;51.328;12.324;2022-10-16T02:18:39;2.38;;;1.38;;
64075;SDS011;50327;51.328;12.324;2022-10-16T02:26:07;2.03;;;1.03;;
64075;SDS011;50327;51.328;12.324;2022-10-16T02:28:36;4.53;;;1.75;;
64075;SDS011;50327;51.328;12.324;2022-10-16T02:31:03;5.55;;;2.78;;
64075;SDS011;50327;51.328;12.324;2022-10-16T02:33:29;2.83;;;1.50;;
64075;SDS011;50327;51.328;12.324;2022-10-16T02:35:56;2.28;;;1.10;;
64075;SDS011;50327;51.328;12.324;2022-10-16T02:38:22;2.88;;;1.10;;
64075;SDS011;50327;51.328;12.324;2022-10-16T02:40:47;3.40;;;0.90;;
64075;SDS011;50327;51.328;12.324;2022-10-16T02:43:13;7.03;;;2.15;;
64075;SDS011;50327;51.328;12.324;2022-10-16T02:45:38;5.00;;;2.08;;
64075;SDS011;50327;51.328;12.324;2022-10-16T02:48:04;8.68;;;3.60;;
64075;SDS011;50327;51.328;12.324;2022-10-16T02:50:29;7.97;;;3.67;;
64075;SDS011;50327;51.328;12.324;2022-10-16T02:52:54;5.05;;;2.63;;
64075;SDS011;50327;51.328;12.324;2022-10-16T02:55:19;5.50;;;2.08;;
64075;SDS011;50327;51.328;12.324;2022-10-16T02:57:44;3.57;;;1.53;;
64075;SDS011;50327;51.328;12.324;2022-10-16T03:00:11;7.05;;;1.55;;
64075;SDS011;50327;51.328;12.324;2022-10-16T03:02:37;8.80;;;1.85;;
64075;SDS011;50327;51.328;12.324;2022-10-16T03:05:02;3.73;;;1.33;;
64075;SDS011;50327;51.328;12.324;2022-10-16T03:07:27;3.65;;;1.63;;
64075;SDS011;50327;51.328;12.324;2022-10-16T03:09:52;8.68;;;1.80;;
64075;SDS011;50327;51.328;12.324;2022-10-16T03:12:17;5.43;;;1.65;;
64075;SDS011;50327;51.328;12.324;2022-10-16T03:14:42;3.17;;;1.60;;
64075;SDS011;50327;51.328;12.324;2022-10-16T03:17:08;3.33;;;1.58;;
64075;SDS011;50327;51.328;12.324;2022-10-16T03:19:33;5.55;;;1.58;;
64075;SDS011;50327;51.328;12.324;2022-10-16T03:21:58;4.55;;;2.10;;
64075;SDS011;50327;51.328;12.324;2022-10-16T03:24:23;4.25;;;1.80;;
64075;SDS011;50327;51.328;12.324;2022-10-16T03:26:49;2.90;;;1.50;;
64075;SDS011;50327;51.328;12.324;2022-10-16T03:29:14;4.93;;;1.60;;
64075;SDS011;50327;51.328;12.324;2022-10-16T03:31:39;3.70;;;1.50;;
64075;SDS011;50327;51.328;12.324;2022-10-16T03:34:04;4.05;;;2.08;;
64075;SDS011;50327;51.328;12.324;2022-10-16T03:36:29;4.88;;;1.70;;
64075;SDS011;50327;51.328;12.324;2022-10-16T03:38:55;3.28;;;1.60;;
64075;SDS011;50327;51.328;12.324;2022-10-16T03:41:20;7.80;;;1.33;;
64075;SDS011;50327;51.328;12.324;2022-10-16T03:43:45;2.13;;;1.33;;
64075;SDS011;50327;51.328;12.324;2022-10-16T03:46:10;3.67;;;1.58;;
64075;SDS011;50327;51.328;12.324;2022-10-16T03:48:35;2.05;;;1.40;;
64075;SDS011;50327;51.328;12.324;2022-10-16T03:51:01;3.25;;;1.55;;
64075;SDS011;50327;51.328;12.324;2022-10-16T03:53:26;7.20;;;1.50;;
64075;SDS011;50327;51.328;12.324;2022-10-16T03:55:51;2.47;;;1.20;;
64075;SDS011;50327;51.328;12.324;2022-10-16T03:58:17;9.40;;;2.30;;
64075;SDS011;50327;51.328;12.324;2022-10-16T04:00:42;2.45;;;1.17;;
64075;SDS011;50327;51.328;12.324;2022-10-16T04:03:07;6.22;;;1.92;;
64075;SDS011;50327;51.328;12.324;2022-10-16T04:05:33;3.70;;;1.30;;
64075;SDS011;50327;51.328;12.324;2022-10-16T04:07:58;2.55;;;1.13;;
64075;SDS011;50327;51.328;12.324;2022-10-16T04:10:23;2.47;;;1.20;;
64075;SDS011;50327;51.328;12.324;2022-10-16T04:12:48;2.83;;;1.38;;
64075;SDS011;50327;51.328;12.324;2022-10-16T04:15:14;2.13;;;1.10;;
64075;SDS011;50327;51.328;12.324;2022-10-16T04:17:39;3.08;;;1.20;;
64075;SDS011;50327;51.328;12.324;2022-10-16T04:20:04;2.03;;;1.25;;
64075;SDS011;50327;51.328;12.324;2022-10-16T04:22:30;3.05;;;1.40;;
64075;SDS011;50327;51.328;12.324;2022-10-16T04:24:55;2.20;;;1.20;;
64075;SDS011;50327;51.328;12.324;2022-10-16T04:27:20;4.10;;;1.30;;
64075;SDS011;50327;51.328;12.324;2022-10-16T04:29:45;4.90;;;1.77;;
64075;SDS011;50327;51.328;12.324;2022-10-16T04:32:10;8.00;;;2.15;;
64075;SDS011;50327;51.328;12.324;2022-10-16T04:34:36;6.33;;;1.27;;
64075;SDS011;50327;51.328;12.324;2022-10-16T04:37:01;7.43;;;1.17;;
64075;SDS011;50327;51.328;12.324;2022-10-16T04:39:26;1.83;;;1.20;;
64075;SDS011;50327;51.328;12.324;2022-10-16T04:41:52;2.90;;;1.23;;
64075;SDS011;50327;51.328;12.324;2022-10-16T04:44:17;3.28;;;1.40;;
64075;SDS011;50327;51.328;12.324;2022-10-16T04:46:42;3.77;;;1.43;;
64075;SDS011;50327;51.328;12.324;2022-10-16T04:49:07;6.18;;;1.60;;
64075;SDS011;50327;51.328;12.324;2022-10-16T04:51:32;5.00;;;1.55;;
64075;SDS011;50327;51.328;12.324;2022-10-16T04:53:58;3.40;;;1.70;;
64075;SDS011;50327;51.328;12.324;2022-10-16T04:56:23;5.78;;;1.48;;
64075;SDS011;50327;51.328;12.324;2022-10-16T04:58:49;4.65;;;1.77;;
64075;SDS011;50327;51.328;12.324;2022-10-16T05:01:14;2.92;;;1.35;;
64075;SDS011;50327;51.328;12.324;2022-10-16T05:03:39;4.85;;;1.48;;
64075;SDS011;50327;51.328;12.324;2022-10-16T05:06:05;2.45;;;1.40;;
64075;SDS011;50327;51.328;12.324;2022-10-16T05:08:30;5.00;;;1.52;;
64075;SDS011;50327;51.328;12.324;2022-10-16T05:10:55;9.15;;;1.65;;
64075;SDS011;50327;51.328;12.324;2022-10-16T05:13:21;2.20;;;1.40;;
64075;SDS011;50327;51.328;12.324;2022-10-16T05:15:46;1.98;;;1.35;;
64075;SDS011;50327;51.328;12.324;2022-10-16T05:18:12;2.72;;;1.25;;
64075;SDS011;50327;51.328;12.324;2022-10-16T05:20:37;3.53;;;1.50;;
64075;SDS011;50327;51.328;12.324;2022-10-16T05:23:02;7.30;;;1.70;;
64075;SDS011;50327;51.328;12.324;2022-10-16T05:25:27;4.38;;;2.03;;
64075;SDS011;50327;51.328;12.324;2022-10-16T05:27:52;4.27;;;1.70;;
64075;SDS011;50327;51.328;12.324;2022-10-16T05:30:18;3.10;;;1.70;;
64075;SDS011;50327;51.328;12.324;2022-10-16T05:32:47;2.75;;;1.50;;
64075;SDS011;50327;51.328;12.324;2022-10-16T05:35:13;5.53;;;1.80;;
64075;SDS011;50327;51.328;12.324;2022-10-16T05:37:38;3.20;;;1.58;;
64075;SDS011;50327;51.328;12.324;2022-10-16T05:40:03;7.53;;;1.95;;
64075;SDS011;50327;51.328;12.324;2022-10-16T05:42:30;4.07;;;1.98;;
64075;SDS011;50327;51.328;12.324;2022-10-16T05:44:55;4.20;;;1.85;;
64075;SDS011;50327;51.328;12.324;2022-10-16T05:47:20;3.58;;;1.73;;
64075;SDS011;50327;51.328;12.324;2022-10-16T05:49:46;5.40;;;1.63;;
64075;SDS011;50327;51.328;12.324;2022-10-16T05:52:11;4.35;;;1.55;;
64075;SDS011;50327;51.328;12.324;2022-10-16T05:54:36;2.67;;;1.58;;
64075;SDS011;50327;51.328;12.324;2022-10-16T05:57:01;5.57;;;1.70;;
64075;SDS011;50327;51.328;12.324;2022-10-16T05:59:27;4.72;;;1.65;;
64075;SDS011;50327;51.328;12.324;2022-10-16T06:01:52;4.17;;;1.80;;
64075;SDS011;50327;51.328;12.324;2022-10-16T06:04:18;5.40;;;1.88;;
64075;SDS011;50327;51.328;12.324;2022-10-16T06:06:43;4.77;;;1.87;;
64075;SDS011;50327;51.328;12.324;2022-10-16T06:09:09;2.50;;;1.30;;
64075;SDS011;50327;51.328;12.324;2022-10-16T06:11:34;2.28;;;1.38;;
64075;SDS011;50327;51.328;12.324;2022-10-16T06:14:00;4.43;;;1.63;;
64075;SDS011;50327;51.328;12.324;2022-10-16T06:16:28;3.42;;;1.40;;
64075;SDS011;50327;51.328;12.324;2022-10-16T06:18:53;4.15;;;1.42;;
64075;SDS011;50327;51.328;12.324;2022-10-16T06:21:20;3.38;;;1.60;;
64075;SDS011;50327;51.328;12.324;2022-10-16T06:23:46;2.92;;;1.25;;
64075;SDS011;50327;51.328;12.324;2022-10-16T06:26:12;5.20;;;1.38;;
64075;SDS011;50327;51.328;12.324;2022-10-16T06:28:37;5.85;;;1.42;;
64075;SDS011;50327;51.328;12.324;2022-10-16T06:31:04;5.90;;;1.88;;
64075;SDS011;50327;51.328;12.324;2022-10-16T06:33:29;2.47;;;1.40;;
64075;SDS011;50327;51.328;12.324;2022-10-16T06:36:05;5.25;;;1.50;;
64075;SDS011;50327;51.328;12.324;2022-10-16T06:38:30;5.63;;;1.40;;
64075;SDS011;50327;51.328;12.324;2022-10-16T06:40:56;5.90;;;1.30;;
64075;SDS011;50327;51.328;12.324;2022-10-16T06:43:21;4.13;;;1.42;;
64075;SDS011;50327;51.328;12.324;2022-10-16T06:45:53;5.07;;;1.80;;
64075;SDS011;50327;51.328;12.324;2022-10-16T06:48:19;6.72;;;1.50;;
64075;SDS011;50327;51.328;12.324;2022-10-16T06:50:44;10.20;;;1.60;;
64075;SDS011;50327;51.328;12.324;2022-10-16T06:53:09;8.38;;;2.28;;
64075;SDS011;50327;51.328;12.324;2022-10-16T06:55:34;5.55;;;1.50;;
64075;SDS011;50327;51.328;12.324;2022-10-16T06:58:00;7.95;;;1.50;;
64075;SDS011;50327;51.328;12.324;2022-10-16T07:00:25;6.82;;;2.67;;
64075;SDS011;50327;51.328;12.324;2022-10-16T07:02:50;4.65;;;1.50;;
64075;SDS011;50327;51.328;12.324;2022-10-16T07:05:15;4.03;;;1.23;;
64075;SDS011;50327;51.328;12.324;2022-10-16T07:07:44;4.05;;;1.30;;
64075;SDS011;50327;51.328;12.324;2022-10-16T07:10:09;4.43;;;1.47;;
64075;SDS011;50327;51.328;12.324;2022-10-16T07:12:34;10.70;;;1.88;;
64075;SDS011;50327;51.328;12.324;2022-10-16T07:14:59;4.50;;;1.73;;
64075;SDS011;50327;51.328;12.324;2022-10-16T07:17:25;6.80;;;1.77;;
64075;SDS011;50327;51.328;12.324;2022-10-16T07:19:50;6.18;;;2.22;;
64075;SDS011;50327;51.328;12.324;2022-10-16T07:22:17;3.05;;;1.42;;
64075;SDS011;50327;51.328;12.324;2022-10-16T07:24:42;1.90;;;1.10;;
64075;SDS011;50327;51.328;12.324;2022-10-16T07:27:09;3.45;;;1.40;;
64075;SDS011;50327;51.328;12.324;2022-10-16T07:29:34;4.17;;;1.10;;
64075;SDS011;50327;51.328;12.324;2022-10-16T07:31:59;4.73;;;1.40;;
64075;SDS011;50327;51.328;12.324;2022-10-16T07:34:24;9.63;;;2.22;;
64075;SDS011;50327;51.328;12.324;2022-10-16T07:36:51;3.63;;;1.50;;
64075;SDS011;50327;51.328;12.324;2022-10-16T07:39:16;3.90;;;1.40;;
64075;SDS011;50327;51.328;12.324;2022-10-16T07:41:42;2.08;;;1.20;;
64075;SDS011;50327;51.328;12.324;2022-10-16T07:44:07;3.10;;;1.15;;
64075;SDS011;50327;51.328;12.324;2022-10-16T07:46:33;2.13;;;1.27;;
64075;SDS011;50327;51.328;12.324;2022-10-16T07:48:59;2.80;;;1.10;;
64075;SDS011;50327;51.328;12.324;2022-10-16T07:51:25;1.90;;;0.98;;
64075;SDS011;50327;51.328;12.324;2022-10-16T07:53:50;2.58;;;0.90;;
64075;SDS011;50327;51.328;12.324;2022-10-16T07:56:16;2.03;;;1.13;;
64075;SDS011;50327;51.328;12.324;2022-10-16T07:58:42;5.60;;;1.17;;
64075;SDS011;50327;51.328;12.324;2022-10-16T08:01:08;1.90;;;0.80;;
64075;SDS011;50327;51.328;12.324;2022-10-16T08:03:33;1.95;;;1.00;;
64075;SDS011;50327;51.328;12.324;2022-10-16T08:05:59;2.28;;;0.70;;
64075;SDS011;50327;51.328;12.324;2022-10-16T08:08:25;3.88;;;1.70;;
64075;SDS011;50327;51.328;12.324;2022-10-16T08:10:50;5.03;;;2.00;;
64075;SDS011;50327;51.328;12.324;2022-10-16T08:13:15;4.75;;;1.58;;
64075;SDS011;50327;51.328;12.324;2022-10-16T08:15:41;1.70;;;1.00;;
64075;SDS011;50327;51.328;12.324;2022-10-16T08:18:06;4.43;;;0.80;;
64075;SDS011;50327;51.328;12.324;2022-10-16T08:20:32;6.35;;;1.00;;
64075;SDS011;50327;51.328;12.324;2022-10-16T08:22:58;1.75;;;0.73;;
64075;SDS011;50327;51.328;12.324;2022-10-16T08:25:24;1.30;;;0.60;;
64075;SDS011;50327;51.328;12.324;2022-10-16T08:27:49;2.00;;;0.85;;
64075;SDS011;50327;51.328;12.324;2022-10-16T08:30:15;0.70;;;0.60;;
64075;SDS011;50327;51.328;12.324;2022-10-16T08:32:40;1.70;;;0.73;;
64075;SDS011;50327;51.328;12.324;2022-10-16T08:35:07;3.70;;;0.70;;
64075;SDS011;50327;51.328;12.324;2022-10-16T08:37:32;1.85;;;1.73;;
64075;SDS011;50327;51.328;12.324;2022-10-16T08:39:58;1.33;;;0.77;;
64075;SDS011;50327;51.328;12.324;2022-10-16T08:42:28;0.98;;;0.63;;
64075;SDS011;50327;51.328;12.324;2022-10-16T08:50:10;0.63;;;0.60;;
64075;SDS011;50327;51.328;12.324;2022-10-16T08:52:38;3.03;;;0.80;;
64075;SDS011;50327;51.328;12.324;2022-10-16T08:55:04;2.07;;;0.80;;
64075;SDS011;50327;51.328;12.324;2022-10-16T08:57:29;2.47;;;0.63;;
64075;SDS011;50327;51.328;12.324;2022-10-16T08:59:57;0.55;;;0.50;;
64075;SDS011;50327;51.328;12.324;2022-10-16T09:09:54;1.10;;;0.80;;
64075;SDS011;50327;51.328;12.324;2022-10-16T09:22:39;3.60;;;0.90;;
64075;SDS011;50327;51.328;12.324;2022-10-16T09:25:10;0.85;;;0.60;;
64075;SDS011;50327;51.328;12.324;2022-10-16T09:27:36;2.00;;;0.65;;
64075;SDS011;50327;51.328;12.324;2022-10-16T09:30:09;1.98;;;0.60;;
64075;SDS011;50327;51.328;12.324;2022-10-16T09:32:35;0.80;;;0.60;;
64075;SDS011;50327;51.328;12.324;2022-10-16T09:35:00;2.92;;;0.85;;
64075;SDS011;50327;51.328;12.324;2022-10-16T09:37:26;1.23;;;0.70;;
64075;SDS011;50327;51.328;12.324;2022-10-16T09:39:52;2.17;;;0.57;;
64075;SDS011;50327;51.328;12.324;2022-10-16T09:44:42;0.90;;;0.60;;
64075;SDS011;50327;51.328;12.324;2022-10-16T09:47:12;2.38;;;1.20;;
64075;SDS011;50327;51.328;12.324;2022-10-16T09:49:39;1.17;;;0.80;;
64075;SDS011;50327;51.328;12.324;2022-10-16T09:52:14;1.55;;;0.80;;
64075;SDS011;50327;51.328;12.324;2022-10-16T09:54:52;3.17;;;0.95;;
64075;SDS011;50327;51.328;12.324;2022-10-16T09:57:18;2.88;;;0.82;;
64075;SDS011;50327;51.328;12.324;2022-10-16T09:59:47;2.05;;;0.90;;
64075;SDS011;50327;51.328;12.324;2022-10-16T10:02:13;1.08;;;0.80;;
64075;SDS011;50327;51.328;12.324;2022-10-16T10:04:39;2.00;;;0.93;;
64075;SDS011;50327;51.328;12.324;2022-10-16T10:07:05;2.17;;;1.40;;
64075;SDS011;50327;51.328;12.324;2022-10-16T10:09:33;1.25;;;0.90;;
64075;SDS011;50327;51.328;12.324;2022-10-16T10:12:02;2.22;;;1.00;;
64075;SDS011;50327;51.328;12.324;2022-10-16T10:14:30;1.90;;;1.10;;
64075;SDS011;50327;51.328;12.324;2022-10-16T10:17:07;4.20;;;1.38;;
64075;SDS011;50327;51.328;12.324;2022-10-16T10:24:59;4.53;;;1.13;;
64075;SDS011;50327;51.328;12.324;2022-10-16T10:27:28;1.58;;;0.98;;
64075;SDS011;50327;51.328;12.324;2022-10-16T10:32:33;2.67;;;0.98;;
64075;SDS011;50327;51.328;12.324;2022-10-16T10:35:13;1.92;;;1.15;;
64075;SDS011;50327;51.328;12.324;2022-10-16T10:40:39;6.65;;;1.00;;
64075;SDS011;50327;51.328;12.324;2022-10-16T10:45:52;8.25;;;1.20;;
64075;SDS011;50327;51.328;12.324;2022-10-16T10:48:20;3.60;;;0.80;;
64075;SDS011;50327;51.328;12.324;2022-10-16T11:06:05;2.38;;;1.30;;
64075;SDS011;50327;51.328;12.324;2022-10-16T11:08:36;5.30;;;1.20;;
64075;SDS011;50327;51.328;12.324;2022-10-16T11:11:17;1.95;;;1.20;;
64075;SDS011;50327;51.328;12.324;2022-10-16T11:16:23;4.05;;;1.10;;
64075;SDS011;50327;51.328;12.324;2022-10-16T11:21:36;1.90;;;1.17;;
64075;SDS011;50327;51.328;12.324;2022-10-16T11:24:06;2.25;;;1.25;;
64075;SDS011;50327;51.328;12.324;2022-10-16T11:26:35;2.97;;;1.40;;
64075;SDS011;50327;51.328;12.324;2022-10-16T11:29:04;4.18;;;1.27;;
64075;SDS011;50327;51.328;12.324;2022-10-16T11:36:34;8.13;;;1.27;;
64075;SDS011;50327;51.328;12.324;2022-10-16T11:39:02;2.35;;;1.23;;
64075;SDS011;50327;51.328;12.324;2022-10-16T11:44:16;2.45;;;1.40;;
64075;SDS011;50327;51.328;12.324;2022-10-16T11:46:40;2.50;;;1.30;;
64075;SDS011;50327;51.328;12.324;2022-10-16T11:49:15;4.22;;;0.98;;
64075;SDS011;50327;51.328;12.324;2022-10-16T11:51:43;4.00;;;1.10;;
64075;SDS011;50327;51.328;12.324;2022-10-16T11:56:41;2.58;;;1.23;;
64075;SDS011;50327;51.328;12.324;2022-10-16T12:04:31;3.05;;;1.20;;
64075;SDS011;50327;51.328;12.324;2022-10-16T12:09:26;2.15;;;1.25;;
64075;SDS011;50327;51.328;12.324;2022-10-16T12:11:51;4.10;;;1.05;;
64075;SDS011;50327;51.328;12.324;2022-10-16T12:14:21;3.10;;;1.75;;
64075;SDS011;50327;51.328;12.324;2022-10-16T12:16:54;3.70;;;1.10;;
64075;SDS011;50327;51.328;12.324;2022-10-16T12:19:21;2.35;;;1.20;;
64075;SDS011;50327;51.328;12.324;2022-10-16T12:21:46;1.67;;;1.13;;
64075;SDS011;50327;51.328;12.324;2022-10-16T12:26:55;3.20;;;1.52;;
64075;SDS011;50327;51.328;12.324;2022-10-16T12:31:52;1.42;;;1.15;;
64075;SDS011;50327;51.328;12.324;2022-10-16T12:34:22;1.67;;;1.00;;
64075;SDS011;50327;51.328;12.324;2022-10-16T12:36:48;2.60;;;1.00;;
64075;SDS011;50327;51.328;12.324;2022-10-16T12:39:20;2.08;;;0.98;;
64075;SDS011;50327;51.328;12.324;2022-10-16T12:41:45;2.17;;;1.20;;
64075;SDS011;50327;51.328;12.324;2022-10-16T12:44:23;4.67;;;1.17;;
64075;SDS011;50327;51.328;12.324;2022-10-16T12:46:49;9.15;;;1.20;;
64075;SDS011;50327;51.328;12.324;2022-10-16T12:49:23;1.63;;;0.80;;
64075;SDS011;50327;51.328;12.324;2022-10-16T12:51:54;2.88;;;1.10;;
64075;SDS011;50327;51.328;12.324;2022-10-16T13:02:11;1.70;;;0.80;;
64075;SDS011;50327;51.328;12.324;2022-10-16T13:04:55;5.93;;;1.48;;
64075;SDS011;50327;51.328;12.324;2022-10-16T13:15:26;1.60;;;1.02;;
64075;SDS011;50327;51.328;12.324;2022-10-16T13:17:56;1.58;;;0.93;;
64075;SDS011;50327;51.328;12.324;2022-10-16T13:20:30;2.03;;;1.02;;
64075;SDS011;50327;51.328;12.324;2022-10-16T13:27:54;1.80;;;1.00;;
64075;SDS011;50327;51.328;12.324;2022-10-16T13:32:49;1.73;;;0.95;;
64075;SDS011;50327;51.328;12.324;2022-10-16T13:35:18;1.90;;;1.02;;
64075;SDS011;50327;51.328;12.324;2022-10-16T13:37:44;1.85;;;1.00;;
64075;SDS011;50327;51.328;12.324;2022-10-16T13:40:17;1.80;;;1.00;;
64075;SDS011;50327;51.328;12.324;2022-10-16T13:42:43;2.50;;;0.80;;
64075;SDS011;50327;51.328;12.324;2022-10-16T13:45:17;2.00;;;0.93;;
64075;SDS011;50327;51.328;12.324;2022-10-16T13:47:42;0.80;;;0.70;;
64075;SDS011;50327;51.328;12.324;2022-10-16T13:50:14;2.25;;;1.08;;
64075;SDS011;50327;51.328;12.324;2022-10-16T13:52:40;3.47;;;1.10;;
64075;SDS011;50327;51.328;12.324;2022-10-16T13:55:24;2.53;;;1.20;;
64075;SDS011;50327;51.328;12.324;2022-10-16T13:57:49;2.78;;;0.98;;
64075;SDS011;50327;51.328;12.324;2022-10-16T14:00:22;1.15;;;0.90;;
64075;SDS011;50327;51.328;12.324;2022-10-16T14:02:52;2.95;;;1.15;;
64075;SDS011;50327;51.328;12.324;2022-10-16T14:05:18;2.83;;;1.20;;
64075;SDS011;50327;51.328;12.324;2022-10-16T14:07:43;3.15;;;1.20;;
64075;SDS011;50327;51.328;12.324;2022-10-16T14:10:29;2.05;;;1.05;;
64075;SDS011;50327;51.328;12.324;2022-10-16T14:13:04;6.43;;;1.38;;
64075;SDS011;50327;51.328;12.324;2022-10-16T14:15:31;3.47;;;1.25;;
64075;SDS011;50327;51.328;12.324;2022-10-16T14:17:57;2.92;;;1.52;;
64075;SDS011;50327;51.328;12.324;2022-10-16T14:20:24;2.33;;;1.00;;
64075;SDS011;50327;51.328;12.324;2022-10-16T14:22:57;2.33;;;1.02;;
64075;SDS011;50327;51.328;12.324;2022-10-16T14:25:25;2.35;;;1.15;;
64075;SDS011;50327;51.328;12.324;2022-10-16T14:28:03;3.42;;;1.10;;
64075;SDS011;50327;51.328;12.324;2022-10-16T14:30:29;1.80;;;1.17;;
64075;SDS011;50327;51.328;12.324;2022-10-16T14:35:24;2.55;;;1.10;;
64075;SDS011;50327;51.328;12.324;2022-10-16T14:37:54;4.85;;;1.73;;
64075;SDS011;50327;51.328;12.324;2022-10-16T14:40:20;2.38;;;1.38;;
64075;SDS011;50327;51.328;12.324;2022-10-16T14:42:45;2.80;;;1.20;;
64075;SDS011;50327;51.328;12.324;2022-10-16T14:45:10;2.28;;;1.20;;
64075;SDS011;50327;51.328;12.324;2022-10-16T14:47:36;3.63;;;1.15;;
64075;SDS011;50327;51.328;12.324;2022-10-16T14:50:03;2.55;;;1.17;;
64075;SDS011;50327;51.328;12.324;2022-10-16T14:52:28;1.95;;;1.10;;
64075;SDS011;50327;51.328;12.324;2022-10-16T14:54:53;1.97;;;1.10;;
64075;SDS011;50327;51.328;12.324;2022-10-16T14:57:20;5.43;;;1.40;;
64075;SDS011;50327;51.328;12.324;2022-10-16T14:59:47;3.10;;;1.15;;
64075;SDS011;50327;51.328;12.324;2022-10-16T15:04:50;2.88;;;1.30;;
64075;SDS011;50327;51.328;12.324;2022-10-16T15:07:15;2.13;;;1.00;;
64075;SDS011;50327;51.328;12.324;2022-10-16T15:09:41;3.40;;;0.93;;
64075;SDS011;50327;51.328;12.324;2022-10-16T15:12:06;4.65;;;1.40;;
64075;SDS011;50327;51.328;12.324;2022-10-16T15:14:31;5.10;;;1.33;;
64075;SDS011;50327;51.328;12.324;2022-10-16T15:16:56;4.97;;;1.20;;
64075;SDS011;50327;51.328;12.324;2022-10-16T15:19:22;3.00;;;1.38;;
64075;SDS011;50327;51.328;12.324;2022-10-16T15:21:47;5.00;;;1.87;;
64075;SDS011;50327;51.328;12.324;2022-10-16T15:24:12;3.03;;;1.42;;
64075;SDS011;50327;51.328;12.324;2022-10-16T15:26:38;4.28;;;1.80;;
64075;SDS011;50327;51.328;12.324;2022-10-16T15:29:03;7.18;;;3.38;;
64075;SDS011;50327;51.328;12.324;2022-10-16T15:31:29;4.22;;;1.85;;
64075;SDS011;50327;51.328;12.324;2022-10-16T15:33:54;8.43;;;2.20;;
64075;SDS011;50327;51.328;12.324;2022-10-16T15:36:29;7.97;;;2.25;;
64075;SDS011;50327;51.328;12.324;2022-10-16T15:38:55;5.65;;;2.30;;
64075;SDS011;50327;51.328;12.324;2022-10-16T15:41:20;3.42;;;1.73;;
64075;SDS011;50327;51.328;12.324;2022-10-16T15:43:47;3.25;;;1.40;;
64075;SDS011;50327;51.328;12.324;2022-10-16T15:46:13;3.90;;;1.73;;
64075;SDS011;50327;51.328;12.324;2022-10-16T15:48:39;3.17;;;1.30;;
64075;SDS011;50327;51.328;12.324;2022-10-16T15:51:05;7.05;;;2.53;;
64075;SDS011;50327;51.328;12.324;2022-10-16T15:53:30;7.93;;;3.50;;
64075;SDS011;50327;51.328;12.324;2022-10-16T15:55:55;5.15;;;1.90;;
64075;SDS011;50327;51.328;12.324;2022-10-16T15:58:20;3.35;;;1.65;;
64075;SDS011;50327;51.328;12.324;2022-10-16T16:00:53;5.05;;;1.73;;
64075;SDS011;50327;51.328;12.324;2022-10-16T16:03:18;6.38;;;2.17;;
64075;SDS011;50327;51.328;12.324;2022-10-16T16:05:43;3.83;;;1.53;;
64075;SDS011;50327;51.328;12.324;2022-10-16T16:08:09;4.03;;;1.70;;
64075;SDS011;50327;51.328;12.324;2022-10-16T16:10:34;2.57;;;1.40;;
64075;SDS011;50327;51.328;12.324;2022-10-16T16:12:59;6.13;;;1.40;;
64075;SDS011;50327;51.328;12.324;2022-10-16T16:15:24;4.75;;;1.70;;
64075;SDS011;50327;51.328;12.324;2022-10-16T16:17:49;8.43;;;1.58;;
64075;SDS011;50327;51.328;12.324;2022-10-16T16:20:15;2.72;;;1.27;;
64075;SDS011;50327;51.328;12.324;2022-10-16T16:22:40;10.95;;;2.90;;
64075;SDS011;50327;51.328;12.324;2022-10-16T16:25:05;11.07;;;2.85;;
64075;SDS011;50327;51.328;12.324;2022-10-16T16:27:31;9.77;;;2.60;;
64075;SDS011;50327;51.328;12.324;2022-10-16T16:29:58;6.00;;;1.98;;
64075;SDS011;50327;51.328;12.324;2022-10-16T16:32:23;6.13;;;2.42;;
64075;SDS011;50327;51.328;12.324;2022-10-16T16:34:49;6.88;;;2.65;;
64075;SDS011;50327;51.328;12.324;2022-10-16T16:37:14;5.03;;;2.13;;
64075;SDS011;50327;51.328;12.324;2022-10-16T16:39:39;6.40;;;2.63;;
64075;SDS011;50327;51.328;12.324;2022-10-16T16:42:04;3.88;;;1.90;;